sensor_id;sensor_type;location;lat;lon;timestamp;pressure;altitude;pressure_sealevel;temperature;humidity
11114;BME280;5610;52.154;9.198;2024-03-25T00:00:42;99477.16;;;6.70;100.00
11114;BME280;5610;52.154;9.198;2024-03-25T00:03:27;99468.38;;;6.70;100.00
11114;BME280;5610;52.154;9.198;2024-03-25T00:06:12;99478.19;;;6.68;100.00
11114;BME280;5610;52.154;9.198;2024-03-25T00:08:56;99483.97;;;6.60;100.00
11114;BME280;5610;52.154;9.198;2024-03-25T00:11:41;99485.78;;;6.59;100.00
11114;BME280;5610;52.154;9.198;2024-03-25T00:14:26;99493.44;;;6.64;100.00
11114;BME280;5610;52.154;9.198;2024-03-25T00:17:12;99486.84;;;6.57;100.00
11114;BME280;5610;52.154;9.198;2024-03-25T00:19:57;99489.03;;;6.50;100.00
11114;BME280;5610;52.154;9.198;2024-03-25T00:22:43;99500.34;;;6.52;100.00
11114;BME280;5610;52.154;9.198;2024-03-25T00:25:27;99495.50;;;6.59;100.00
11114;BME280;5610;52.154;9.198;2024-03-25T00:28:13;99482.75;;;6.66;100.00
11114;BME280;5610;52.154;9.198;2024-03-25T00:30:57;99493.06;;;6.70;100.00
11114;BME280;5610;52.154;9.198;2024-03-25T00:33:44;99495.63;;;6.57;100.00
11114;BME280;5610;52.154;9.198;2024-03-25T00:36:29;99499.72;;;6.49;100.00
11114;BME280;5610;52.154;9.198;2024-03-25T00:39:14;99510.28;;;6.63;100.00
11114;BME280;5610;52.154;9.198;2024-03-25T00:42:00;99510.34;;;6.61;100.00
11114;BME280;5610;52.154;9.198;2024-03-25T00:44:44;99512.72;;;6.66;100.00
11114;BME280;5610;52.154;9.198;2024-03-25T00:47:29;99518.38;;;6.60;100.00
11114;BME280;5610;52.154;9.198;2024-03-25T00:50:14;99513.75;;;6.64;100.00
11114;BME280;5610;52.154;9.198;2024-03-25T00:53:00;99523.19;;;6.68;100.00
11114;BME280;5610;52.154;9.198;2024-03-25T00:55:45;99522.38;;;6.53;100.00
11114;BME280;5610;52.154;9.198;2024-03-25T00:58:30;99527.94;;;6.63;100.00
11114;BME280;5610;52.154;9.198;2024-03-25T01:01:14;99526.22;;;6.61;100.00
11114;BME280;5610;52.154;9.198;2024-03-25T01:03:59;99532.66;;;6.57;100.00
11114;BME280;5610;52.154;9.198;2024-03-25T01:06:46;99526.91;;;6.65;100.00
11114;BME280;5610;52.154;9.198;2024-03-25T01:09:30;99543.75;;;6.50;100.00
11114;BME280;5610;52.154;9.198;2024-03-25T01:12:15;99538.44;;;6.50;100.00
11114;BME280;5610;52.154;9.198;2024-03-25T01:14:59;99533.53;;;6.58;100.00
11114;BME280;5610;52.154;9.198;2024-03-25T01:17:46;99544.09;;;6.58;100.00
11114;BME280;5610;52.154;9.198;2024-03-25T01:20:30;99541.09;;;6.50;100.00
11114;BME280;5610;52.154;9.198;2024-03-25T01:23:16;99541.84;;;6.52;100.00
11114;BME280;5610;52.154;9.198;2024-03-25T01:26:00;99550.53;;;6.40;100.00
11114;BME280;5610;52.154;9.198;2024-03-25T01:28:46;99540.25;;;6.35;100.00
11114;BME280;5610;52.154;9.198;2024-03-25T01:31:30;99549.03;;;6.50;100.00
11114;BME280;5610;52.154;9.198;2024-03-25T01:34:15;99549.41;;;6.44;100.00
11114;BME280;5610;52.154;9.198;2024-03-25T01:36:59;99541.25;;;6.47;100.00
11114;BME280;5610;52.154;9.198;2024-03-25T01:39:46;99538.81;;;6.44;100.00
11114;BME280;5610;52.154;9.198;2024-03-25T01:42:30;99541.09;;;6.36;100.00
11114;BME280;5610;52.154;9.198;2024-03-25T01:45:15;99542.59;;;6.40;100.00
11114;BME280;5610;52.154;9.198;2024-03-25T01:48:02;99551.69;;;6.50;100.00
11114;BME280;5610;52.154;9.198;2024-03-25T01:50:49;99537.88;;;6.45;100.00
11114;BME280;5610;52.154;9.198;2024-03-25T01:53:33;99552.69;;;6.47;100.00
11114;BME280;5610;52.154;9.198;2024-03-25T01:56:21;99546.66;;;6.31;100.00
11114;BME280;5610;52.154;9.198;2024-03-25T01:59:07;99558.78;;;6.35;100.00
11114;BME280;5610;52.154;9.198;2024-03-25T02:01:53;99548.84;;;6.39;100.00
11114;BME280;5610;52.154;9.198;2024-03-25T02:04:39;99549.31;;;6.45;100.00
11114;BME280;5610;52.154;9.198;2024-03-25T02:07:25;99560.94;;;6.28;100.00
11114;BME280;5610;52.154;9.198;2024-03-25T02:10:11;99565.06;;;6.32;100.00
11114;BME280;5610;52.154;9.198;2024-03-25T02:12:59;99566.03;;;6.31;100.00
11114;BME280;5610;52.154;9.198;2024-03-25T02:15:44;99557.63;;;6.25;100.00
11114;BME280;5610;52.154;9.198;2024-03-25T02:18:29;99563.38;;;6.17;100.00
11114;BME280;5610;52.154;9.198;2024-03-25T02:21:15;99563.47;;;6.30;100.00
11114;BME280;5610;52.154;9.198;2024-03-25T02:24:04;99561.59;;;6.32;100.00
11114;BME280;5610;52.154;9.198;2024-03-25T02:26:51;99560.84;;;6.44;100.00
11114;BME280;5610;52.154;9.198;2024-03-25T02:29:37;99577.66;;;6.43;100.00
11114;BME280;5610;52.154;9.198;2024-03-25T02:32:21;99571.59;;;6.41;100.00
11114;BME280;5610;52.154;9.198;2024-03-25T02:35:09;99570.47;;;6.31;100.00
11114;BME280;5610;52.154;9.198;2024-03-25T02:37:54;99572.00;;;6.35;100.00
11114;BME280;5610;52.154;9.198;2024-03-25T02:40:40;99576.72;;;6.44;100.00
11114;BME280;5610;52.154;9.198;2024-03-25T02:43:25;99570.94;;;6.38;100.00
11114;BME280;5610;52.154;9.198;2024-03-25T02:46:11;99574.72;;;6.48;100.00
11114;BME280;5610;52.154;9.198;2024-03-25T02:48:55;99578.41;;;6.45;100.00
11114;BME280;5610;52.154;9.198;2024-03-25T02:51:40;99580.78;;;6.36;100.00
11114;BME280;5610;52.154;9.198;2024-03-25T02:54:25;99588.72;;;6.50;100.00
11114;BME280;5610;52.154;9.198;2024-03-25T02:57:09;99591.16;;;6.39;100.00
11114;BME280;5610;52.154;9.198;2024-03-25T02:59:57;99589.38;;;6.39;100.00
11114;BME280;5610;52.154;9.198;2024-03-25T03:02:41;99586.13;;;6.34;100.00
11114;BME280;5610;52.154;9.198;2024-03-25T03:05:26;99600.63;;;6.28;100.00
11114;BME280;5610;52.154;9.198;2024-03-25T03:08:10;99598.72;;;6.45;100.00
11114;BME280;5610;52.154;9.198;2024-03-25T03:10:55;99604.66;;;6.34;100.00
11114;BME280;5610;52.154;9.198;2024-03-25T03:13:40;99596.28;;;6.42;100.00
11114;BME280;5610;52.154;9.198;2024-03-25T03:16:26;99608.44;;;6.30;100.00
11114;BME280;5610;52.154;9.198;2024-03-25T03:19:10;99599.78;;;6.28;100.00
11114;BME280;5610;52.154;9.198;2024-03-25T03:21:56;99614.69;;;6.29;100.00
11114;BME280;5610;52.154;9.198;2024-03-25T03:24:40;99613.66;;;6.31;100.00
11114;BME280;5610;52.154;9.198;2024-03-25T03:27:25;99618.38;;;6.41;100.00
11114;BME280;5610;52.154;9.198;2024-03-25T03:30:10;99618.19;;;6.44;100.00
11114;BME280;5610;52.154;9.198;2024-03-25T03:32:57;99612.91;;;6.44;100.00
11114;BME280;5610;52.154;9.198;2024-03-25T03:35:42;99624.13;;;6.33;100.00
11114;BME280;5610;52.154;9.198;2024-03-25T03:38:27;99614.03;;;6.40;100.00
11114;BME280;5610;52.154;9.198;2024-03-25T03:41:12;99622.53;;;6.30;100.00
11114;BME280;5610;52.154;9.198;2024-03-25T03:43:57;99618.19;;;6.29;100.00
11114;BME280;5610;52.154;9.198;2024-03-25T03:46:41;99621.78;;;6.28;100.00
11114;BME280;5610;52.154;9.198;2024-03-25T03:49:28;99630.47;;;6.30;100.00
11114;BME280;5610;52.154;9.198;2024-03-25T03:52:12;99623.38;;;6.31;100.00
11114;BME280;5610;52.154;9.198;2024-03-25T03:54:57;99625.75;;;6.36;100.00
11114;BME280;5610;52.154;9.198;2024-03-25T03:57:41;99635.28;;;6.24;100.00
11114;BME280;5610;52.154;9.198;2024-03-25T04:00:27;99623.44;;;6.15;100.00
11114;BME280;5610;52.154;9.198;2024-03-25T04:03:11;99628.09;;;6.40;100.00
11114;BME280;5610;52.154;9.198;2024-03-25T04:05:58;99632.56;;;6.40;100.00
11114;BME280;5610;52.154;9.198;2024-03-25T04:08:42;99635.03;;;6.43;100.00
11114;BME280;5610;52.154;9.198;2024-03-25T04:11:27;99637.69;;;6.43;100.00
11114;BME280;5610;52.154;9.198;2024-03-25T04:14:11;99629.75;;;6.43;100.00
11114;BME280;5610;52.154;9.198;2024-03-25T04:16:58;99631.69;;;6.39;100.00
11114;BME280;5610;52.154;9.198;2024-03-25T04:19:43;99632.94;;;6.48;100.00
11114;BME280;5610;52.154;9.198;2024-03-25T04:22:29;99634.72;;;6.47;100.00
11114;BME280;5610;52.154;9.198;2024-03-25T04:25:13;99639.00;;;6.50;100.00
11114;BME280;5610;52.154;9.198;2024-03-25T04:27:59;99637.78;;;6.55;100.00
11114;BME280;5610;52.154;9.198;2024-03-25T04:30:43;99632.66;;;6.52;100.00
11114;BME280;5610;52.154;9.198;2024-03-25T04:33:28;99638.78;;;6.39;100.00
11114;BME280;5610;52.154;9.198;2024-03-25T04:36:14;99632.38;;;6.43;100.00
11114;BME280;5610;52.154;9.198;2024-03-25T04:38:59;99632.66;;;6.38;100.00
11114;BME280;5610;52.154;9.198;2024-03-25T04:41:43;99641.91;;;6.31;100.00
11114;BME280;5610;52.154;9.198;2024-03-25T04:44:28;99634.06;;;6.29;100.00
11114;BME280;5610;52.154;9.198;2024-03-25T04:47:12;99640.78;;;6.35;100.00
11114;BME280;5610;52.154;9.198;2024-03-25T04:49:57;99654.09;;;6.48;100.00
11114;BME280;5610;52.154;9.198;2024-03-25T04:52:41;99656.25;;;6.41;100.00
11114;BME280;5610;52.154;9.198;2024-03-25T04:55:27;99654.94;;;6.48;100.00
11114;BME280;5610;52.154;9.198;2024-03-25T04:58:11;99662.69;;;6.37;100.00
11114;BME280;5610;52.154;9.198;2024-03-25T05:00:56;99659.38;;;6.48;100.00
11114;BME280;5610;52.154;9.198;2024-03-25T05:03:40;99673.03;;;6.42;100.00
11114;BME280;5610;52.154;9.198;2024-03-25T05:06:25;99667.41;;;6.32;100.00
11114;BME280;5610;52.154;9.198;2024-03-25T05:09:09;99672.44;;;6.37;100.00
11114;BME280;5610;52.154;9.198;2024-03-25T05:11:55;99674.13;;;6.38;100.00
11114;BME280;5610;52.154;9.198;2024-03-25T05:14:39;99674.59;;;6.30;100.00
11114;BME280;5610;52.154;9.198;2024-03-25T05:17:24;99683.13;;;6.35;100.00
11114;BME280;5610;52.154;9.198;2024-03-25T05:20:09;99679.59;;;6.20;100.00
11114;BME280;5610;52.154;9.198;2024-03-25T05:22:54;99699.31;;;6.15;100.00
11114;BME280;5610;52.154;9.198;2024-03-25T05:25:38;99697.50;;;6.15;100.00
11114;BME280;5610;52.154;9.198;2024-03-25T05:28:24;99705.16;;;6.20;100.00
11114;BME280;5610;52.154;9.198;2024-03-25T05:31:09;99705.19;;;6.04;100.00
11114;BME280;5610;52.154;9.198;2024-03-25T05:33:53;99706.44;;;6.13;100.00
11114;BME280;5610;52.154;9.198;2024-03-25T05:36:38;99721.03;;;6.20;100.00
11114;BME280;5610;52.154;9.198;2024-03-25T05:39:22;99709.97;;;6.13;100.00
11114;BME280;5610;52.154;9.198;2024-03-25T05:42:07;99717.03;;;6.13;100.00
11114;BME280;5610;52.154;9.198;2024-03-25T05:44:53;99724.41;;;6.08;100.00
11114;BME280;5610;52.154;9.198;2024-03-25T05:47:37;99715.28;;;6.13;100.00
11114;BME280;5610;52.154;9.198;2024-03-25T05:50:22;99722.81;;;6.19;100.00
11114;BME280;5610;52.154;9.198;2024-03-25T05:53:06;99721.63;;;6.25;100.00
11114;BME280;5610;52.154;9.198;2024-03-25T05:55:50;99717.97;;;6.27;100.00
11114;BME280;5610;52.154;9.198;2024-03-25T05:58:35;99722.66;;;6.22;100.00
11114;BME280;5610;52.154;9.198;2024-03-25T06:01:21;99723.16;;;6.29;100.00
11114;BME280;5610;52.154;9.198;2024-03-25T06:04:05;99724.09;;;6.28;100.00
11114;BME280;5610;52.154;9.198;2024-03-25T06:06:50;99733.78;;;6.43;100.00
11114;BME280;5610;52.154;9.198;2024-03-25T06:09:34;99719.88;;;6.40;100.00
11114;BME280;5610;52.154;9.198;2024-03-25T06:12:19;99730.44;;;6.40;100.00
11114;BME280;5610;52.154;9.198;2024-03-25T06:15:04;99728.44;;;6.29;100.00
11114;BME280;5610;52.154;9.198;2024-03-25T06:17:50;99733.09;;;6.40;100.00
11114;BME280;5610;52.154;9.198;2024-03-25T06:20:35;99746.72;;;6.48;100.00
11114;BME280;5610;52.154;9.198;2024-03-25T06:23:23;99746.56;;;6.51;100.00
11114;BME280;5610;52.154;9.198;2024-03-25T06:26:07;99753.66;;;6.50;100.00
11114;BME280;5610;52.154;9.198;2024-03-25T06:28:52;99753.59;;;6.66;100.00
11114;BME280;5610;52.154;9.198;2024-03-25T06:31:36;99753.19;;;6.58;100.00
11114;BME280;5610;52.154;9.198;2024-03-25T06:34:40;99750.31;;;6.77;100.00
11114;BME280;5610;52.154;9.198;2024-03-25T06:37:25;99763.09;;;6.99;100.00
11114;BME280;5610;52.154;9.198;2024-03-25T06:40:10;99765.75;;;7.13;100.00
11114;BME280;5610;52.154;9.198;2024-03-25T06:42:55;99762.75;;;7.19;100.00
11114;BME280;5610;52.154;9.198;2024-03-25T06:45:40;99760.94;;;7.20;100.00
11114;BME280;5610;52.154;9.198;2024-03-25T06:48:24;99770.19;;;7.41;100.00
11114;BME280;5610;52.154;9.198;2024-03-25T06:51:10;99766.50;;;7.29;100.00
11114;BME280;5610;52.154;9.198;2024-03-25T06:53:55;99770.94;;;7.43;100.00
11114;BME280;5610;52.154;9.198;2024-03-25T06:56:39;99780.03;;;7.25;100.00
11114;BME280;5610;52.154;9.198;2024-03-25T06:59:24;99778.53;;;7.21;100.00
11114;BME280;5610;52.154;9.198;2024-03-25T07:02:08;99780.03;;;7.39;100.00
11114;BME280;5610;52.154;9.198;2024-03-25T07:04:53;99779.47;;;7.48;100.00
11114;BME280;5610;52.154;9.198;2024-03-25T07:07:39;99781.44;;;7.59;100.00
11114;BME280;5610;52.154;9.198;2024-03-25T07:10:23;99779.13;;;7.81;100.00
11114;BME280;5610;52.154;9.198;2024-03-25T07:13:07;99779.78;;;7.85;100.00
11114;BME280;5610;52.154;9.198;2024-03-25T07:15:54;99794.09;;;7.96;100.00
11114;BME280;5610;52.154;9.198;2024-03-25T07:18:38;99791.00;;;7.76;100.00
11114;BME280;5610;52.154;9.198;2024-03-25T07:21:23;99799.19;;;7.99;100.00
11114;BME280;5610;52.154;9.198;2024-03-25T07:24:08;99804.91;;;7.79;100.00
11114;BME280;5610;52.154;9.198;2024-03-25T07:26:53;99804.13;;;7.91;100.00
11114;BME280;5610;52.154;9.198;2024-03-25T07:29:38;99793.47;;;8.06;100.00
11114;BME280;5610;52.154;9.198;2024-03-25T07:32:22;99802.69;;;8.41;100.00
11114;BME280;5610;52.154;9.198;2024-03-25T07:35:07;99803.97;;;8.48;100.00
11114;BME280;5610;52.154;9.198;2024-03-25T07:37:52;99803.31;;;8.45;100.00
11114;BME280;5610;52.154;9.198;2024-03-25T07:40:39;99801.88;;;8.53;100.00
11114;BME280;5610;52.154;9.198;2024-03-25T07:43:23;99806.84;;;8.58;100.00
11114;BME280;5610;52.154;9.198;2024-03-25T07:46:07;99802.00;;;8.65;100.00
11114;BME280;5610;52.154;9.198;2024-03-25T07:48:52;99798.53;;;8.77;100.00
11114;BME280;5610;52.154;9.198;2024-03-25T07:51:36;99798.88;;;8.98;100.00
11114;BME280;5610;52.154;9.198;2024-03-25T07:54:22;99803.19;;;8.86;100.00
11114;BME280;5610;52.154;9.198;2024-03-25T07:57:08;99806.53;;;9.28;100.00
11114;BME280;5610;52.154;9.198;2024-03-25T07:59:52;99802.16;;;9.52;100.00
11114;BME280;5610;52.154;9.198;2024-03-25T08:02:37;99808.00;;;9.57;100.00
11114;BME280;5610;52.154;9.198;2024-03-25T08:05:21;99810.16;;;9.52;100.00
11114;BME280;5610;52.154;9.198;2024-03-25T08:08:06;99810.75;;;9.69;100.00
11114;BME280;5610;52.154;9.198;2024-03-25T08:10:50;99815.03;;;9.58;100.00
11114;BME280;5610;52.154;9.198;2024-03-25T08:13:36;99818.63;;;9.70;100.00
11114;BME280;5610;52.154;9.198;2024-03-25T08:16:21;99821.94;;;9.61;100.00
11114;BME280;5610;52.154;9.198;2024-03-25T08:19:05;99817.09;;;9.91;100.00
11114;BME280;5610;52.154;9.198;2024-03-25T08:21:50;99816.25;;;10.28;100.00
11114;BME280;5610;52.154;9.198;2024-03-25T08:24:34;99815.19;;;10.54;100.00
11114;BME280;5610;52.154;9.198;2024-03-25T08:27:19;99823.19;;;10.30;100.00
11114;BME280;5610;52.154;9.198;2024-03-25T08:30:06;99823.00;;;10.68;100.00
11114;BME280;5610;52.154;9.198;2024-03-25T08:32:50;99828.66;;;10.64;100.00
11114;BME280;5610;52.154;9.198;2024-03-25T08:35:35;99833.13;;;10.87;100.00
11114;BME280;5610;52.154;9.198;2024-03-25T08:38:19;99837.19;;;11.26;100.00
11114;BME280;5610;52.154;9.198;2024-03-25T08:41:04;99828.34;;;11.26;100.00
11114;BME280;5610;52.154;9.198;2024-03-25T08:43:48;99836.78;;;10.97;94.43
11114;BME280;5610;52.154;9.198;2024-03-25T08:46:34;99829.31;;;11.25;100.00
11114;BME280;5610;52.154;9.198;2024-03-25T08:49:18;99829.72;;;11.32;100.00
11114;BME280;5610;52.154;9.198;2024-03-25T08:52:03;99833.25;;;11.43;97.73
11114;BME280;5610;52.154;9.198;2024-03-25T08:54:48;99833.13;;;11.45;90.01
11114;BME280;5610;52.154;9.198;2024-03-25T08:57:32;99826.94;;;11.44;93.50
11114;BME280;5610;52.154;9.198;2024-03-25T09:00:18;99832.16;;;11.46;92.90
11114;BME280;5610;52.154;9.198;2024-03-25T09:03:04;99834.38;;;11.06;87.88
11114;BME280;5610;52.154;9.198;2024-03-25T09:05:48;99839.19;;;11.47;94.96
11114;BME280;5610;52.154;9.198;2024-03-25T09:08:33;99839.69;;;11.52;95.25
11114;BME280;5610;52.154;9.198;2024-03-25T09:11:17;99832.00;;;11.25;84.55
11114;BME280;5610;52.154;9.198;2024-03-25T09:14:02;99841.03;;;11.58;76.36
11114;BME280;5610;52.154;9.198;2024-03-25T09:16:46;99840.78;;;11.72;74.94
11114;BME280;5610;52.154;9.198;2024-03-25T09:19:32;99840.28;;;11.44;78.13
11114;BME280;5610;52.154;9.198;2024-03-25T09:22:16;99841.34;;;11.31;81.28
11114;BME280;5610;52.154;9.198;2024-03-25T09:25:01;99843.13;;;11.19;80.83
11114;BME280;5610;52.154;9.198;2024-03-25T09:27:46;99854.91;;;11.16;78.81
11114;BME280;5610;52.154;9.198;2024-03-25T09:30:30;99848.59;;;11.17;76.28
11114;BME280;5610;52.154;9.198;2024-03-25T09:33:14;99856.59;;;11.17;74.39
11114;BME280;5610;52.154;9.198;2024-03-25T09:36:00;99848.94;;;11.13;75.66
11114;BME280;5610;52.154;9.198;2024-03-25T09:38:45;99848.78;;;11.61;73.35
11114;BME280;5610;52.154;9.198;2024-03-25T09:41:30;99838.94;;;12.28;76.01
11114;BME280;5610;52.154;9.198;2024-03-25T09:44:14;99846.50;;;12.87;72.01
11114;BME280;5610;52.154;9.198;2024-03-25T09:47:00;99842.66;;;13.01;70.65
11114;BME280;5610;52.154;9.198;2024-03-25T09:49:45;99840.75;;;12.71;66.73
11114;BME280;5610;52.154;9.198;2024-03-25T09:52:31;99844.56;;;12.57;71.33
11114;BME280;5610;52.154;9.198;2024-03-25T09:55:16;99851.53;;;12.49;72.86
11114;BME280;5610;52.154;9.198;2024-03-25T09:58:02;99851.03;;;12.44;70.56
11114;BME280;5610;52.154;9.198;2024-03-25T10:00:47;99850.50;;;12.61;71.26
11114;BME280;5610;52.154;9.198;2024-03-25T10:03:31;99845.28;;;12.91;71.42
11114;BME280;5610;52.154;9.198;2024-03-25T10:06:16;99844.00;;;13.49;70.53
11114;BME280;5610;52.154;9.198;2024-03-25T10:09:04;99839.44;;;14.00;62.16
11114;BME280;5610;52.154;9.198;2024-03-25T10:11:49;99835.38;;;14.16;57.92
11114;BME280;5610;52.154;9.198;2024-03-25T10:14:34;99831.16;;;14.04;59.74
11114;BME280;5610;52.154;9.198;2024-03-25T10:17:18;99827.25;;;14.37;60.36
11114;BME280;5610;52.154;9.198;2024-03-25T10:20:04;99830.84;;;14.56;61.73
11114;BME280;5610;52.154;9.198;2024-03-25T10:22:48;99830.66;;;14.39;59.76
11114;BME280;5610;52.154;9.198;2024-03-25T10:25:34;99828.44;;;14.73;58.31
11114;BME280;5610;52.154;9.198;2024-03-25T10:28:19;99819.38;;;16.06;59.73
11114;BME280;5610;52.154;9.198;2024-03-25T10:31:03;99810.41;;;17.66;56.21
11114;BME280;5610;52.154;9.198;2024-03-25T10:33:47;99814.59;;;19.84;50.52
11114;BME280;5610;52.154;9.198;2024-03-25T10:36:32;99809.81;;;20.33;49.19
11114;BME280;5610;52.154;9.198;2024-03-25T10:39:17;99808.16;;;20.86;45.20
11114;BME280;5610;52.154;9.198;2024-03-25T10:42:05;99810.06;;;20.23;47.37
11114;BME280;5610;52.154;9.198;2024-03-25T10:44:50;99810.81;;;18.72;49.84
11114;BME280;5610;52.154;9.198;2024-03-25T10:47:34;99821.22;;;16.79;52.06
11114;BME280;5610;52.154;9.198;2024-03-25T10:50:20;99827.63;;;14.92;54.58
11114;BME280;5610;52.154;9.198;2024-03-25T10:53:08;99824.66;;;14.16;58.01
11114;BME280;5610;52.154;9.198;2024-03-25T10:55:55;99827.50;;;13.43;61.04
11114;BME280;5610;52.154;9.198;2024-03-25T10:58:41;99818.81;;;13.30;64.64
11114;BME280;5610;52.154;9.198;2024-03-25T11:01:28;99821.16;;;13.44;70.29
11114;BME280;5610;52.154;9.198;2024-03-25T11:04:13;99825.94;;;13.41;64.83
11114;BME280;5610;52.154;9.198;2024-03-25T11:07:07;99810.25;;;17.68;58.41
11114;BME280;5610;52.154;9.198;2024-03-25T11:09:51;99802.28;;;21.87;48.55
11114;BME280;5610;52.154;9.198;2024-03-25T11:12:49;99798.47;;;27.24;41.01
11114;BME280;5610;52.154;9.198;2024-03-25T11:15:37;99802.16;;;25.77;38.82
11114;BME280;5610;52.154;9.198;2024-03-25T11:18:23;99799.19;;;22.20;42.60
11114;BME280;5610;52.154;9.198;2024-03-25T11:21:08;99804.75;;;19.03;48.44
11114;BME280;5610;52.154;9.198;2024-03-25T11:23:52;99805.50;;;17.10;51.63
11114;BME280;5610;52.154;9.198;2024-03-25T11:26:40;99806.50;;;15.35;55.18
11114;BME280;5610;52.154;9.198;2024-03-25T11:29:25;99807.53;;;14.38;61.77
11114;BME280;5610;52.154;9.198;2024-03-25T11:32:11;99809.47;;;13.76;65.27
11114;BME280;5610;52.154;9.198;2024-03-25T11:34:55;99810.25;;;14.47;68.24
11114;BME280;5610;52.154;9.198;2024-03-25T11:37:41;99806.28;;;15.00;62.70
11114;BME280;5610;52.154;9.198;2024-03-25T11:40:25;99797.41;;;14.51;62.10
11114;BME280;5610;52.154;9.198;2024-03-25T11:43:17;99802.91;;;13.90;62.84
11114;BME280;5610;52.154;9.198;2024-03-25T11:46:01;99794.81;;;13.80;65.37
11114;BME280;5610;52.154;9.198;2024-03-25T11:48:48;99789.06;;;13.75;64.78
11114;BME280;5610;52.154;9.198;2024-03-25T11:51:33;99786.63;;;17.62;56.25
11114;BME280;5610;52.154;9.198;2024-03-25T11:54:17;99776.91;;;18.86;52.52
11114;BME280;5610;52.154;9.198;2024-03-25T11:57:02;99779.63;;;21.95;46.86
11114;BME280;5610;52.154;9.198;2024-03-25T11:59:46;99782.78;;;22.64;45.63
11114;BME280;5610;52.154;9.198;2024-03-25T12:02:31;99769.78;;;26.45;38.17
11114;BME280;5610;52.154;9.198;2024-03-25T12:05:17;99774.63;;;24.59;39.12
11114;BME280;5610;52.154;9.198;2024-03-25T12:08:02;99765.06;;;25.03;39.75
11114;BME280;5610;52.154;9.198;2024-03-25T12:10:46;99764.41;;;29.08;35.61
11114;BME280;5610;52.154;9.198;2024-03-25T12:13:49;99757.09;;;28.49;34.12
11114;BME280;5610;52.154;9.198;2024-03-25T12:16:34;99757.66;;;28.02;35.00
11114;BME280;5610;52.154;9.198;2024-03-25T12:19:18;99750.31;;;25.57;36.76
11114;BME280;5610;52.154;9.198;2024-03-25T12:22:04;99746.56;;;26.22;36.85
11114;BME280;5610;52.154;9.198;2024-03-25T12:24:48;99745.19;;;24.28;36.66
11114;BME280;5610;52.154;9.198;2024-03-25T12:27:34;99738.94;;;22.10;40.96
11114;BME280;5610;52.154;9.198;2024-03-25T12:30:19;99741.00;;;20.81;42.05
11114;BME280;5610;52.154;9.198;2024-03-25T12:33:04;99740.47;;;19.78;44.69
11114;BME280;5610;52.154;9.198;2024-03-25T12:35:51;99731.59;;;25.87;36.62
11114;BME280;5610;52.154;9.198;2024-03-25T12:38:38;99720.44;;;27.21;36.23
11114;BME280;5610;52.154;9.198;2024-03-25T12:41:22;99719.13;;;26.04;36.72
11114;BME280;5610;52.154;9.198;2024-03-25T12:44:07;99718.44;;;23.42;37.51
11114;BME280;5610;52.154;9.198;2024-03-25T12:46:52;99710.28;;;21.86;39.98
11114;BME280;5610;52.154;9.198;2024-03-25T12:49:36;99715.25;;;20.40;42.14
11114;BME280;5610;52.154;9.198;2024-03-25T12:52:20;99715.25;;;19.86;44.51
11114;BME280;5610;52.154;9.198;2024-03-25T12:55:06;99711.41;;;25.16;36.79
11114;BME280;5610;52.154;9.198;2024-03-25T12:57:51;99708.25;;;29.58;32.25
11114;BME280;5610;52.154;9.198;2024-03-25T13:00:36;99706.09;;;25.41;34.39
11114;BME280;5610;52.154;9.198;2024-03-25T13:03:20;99705.97;;;21.62;39.67
11114;BME280;5610;52.154;9.198;2024-03-25T13:06:05;99710.94;;;19.05;42.37
11114;BME280;5610;52.154;9.198;2024-03-25T13:08:49;99710.16;;;17.89;45.44
11114;BME280;5610;52.154;9.198;2024-03-25T13:11:35;99719.59;;;16.19;49.51
11114;BME280;5610;52.154;9.198;2024-03-25T13:14:20;99725.78;;;15.09;52.15
11114;BME280;5610;52.154;9.198;2024-03-25T13:17:04;99721.19;;;14.44;55.07
11114;BME280;5610;52.154;9.198;2024-03-25T13:19:49;99726.72;;;13.63;69.08
11114;BME280;5610;52.154;9.198;2024-03-25T13:22:34;99723.25;;;13.32;85.48
11114;BME280;5610;52.154;9.198;2024-03-25T13:25:18;99718.69;;;13.23;87.77
11114;BME280;5610;52.154;9.198;2024-03-25T13:28:04;99723.03;;;13.24;94.72
11114;BME280;5610;52.154;9.198;2024-03-25T13:30:49;99720.69;;;13.31;89.02
11114;BME280;5610;52.154;9.198;2024-03-25T13:33:33;99714.16;;;13.54;83.99
11114;BME280;5610;52.154;9.198;2024-03-25T13:36:18;99713.88;;;14.17;84.30
11114;BME280;5610;52.154;9.198;2024-03-25T13:39:02;99701.22;;;15.04;77.19
11114;BME280;5610;52.154;9.198;2024-03-25T13:41:47;99701.56;;;20.64;52.69
11114;BME280;5610;52.154;9.198;2024-03-25T13:44:33;99689.13;;;25.33;40.36
11114;BME280;5610;52.154;9.198;2024-03-25T13:47:17;99691.53;;;28.47;36.82
11114;BME280;5610;52.154;9.198;2024-03-25T13:50:02;99679.25;;;28.08;35.78
11114;BME280;5610;52.154;9.198;2024-03-25T13:52:46;99682.44;;;25.15;38.16
11114;BME280;5610;52.154;9.198;2024-03-25T13:55:31;99685.97;;;22.99;39.72
11114;BME280;5610;52.154;9.198;2024-03-25T13:58:15;99683.22;;;20.89;43.08
11114;BME280;5610;52.154;9.198;2024-03-25T14:01:01;99680.97;;;19.39;45.30
11114;BME280;5610;52.154;9.198;2024-03-25T14:03:45;99678.72;;;18.30;47.99
11114;BME280;5610;52.154;9.198;2024-03-25T14:06:30;99675.19;;;18.21;49.57
11114;BME280;5610;52.154;9.198;2024-03-25T14:09:23;99673.16;;;20.14;47.66
11114;BME280;5610;52.154;9.198;2024-03-25T14:12:08;99657.06;;;21.70;43.50
11114;BME280;5610;52.154;9.198;2024-03-25T14:14:52;99661.41;;;20.30;46.40
11114;BME280;5610;52.154;9.198;2024-03-25T14:17:38;99663.56;;;19.41;47.33
11114;BME280;5610;52.154;9.198;2024-03-25T14:20:23;99663.91;;;18.34;49.98
11114;BME280;5610;52.154;9.198;2024-03-25T14:23:07;99660.34;;;17.50;50.48
11114;BME280;5610;52.154;9.198;2024-03-25T14:25:52;99666.75;;;16.89;53.45
11114;BME280;5610;52.154;9.198;2024-03-25T14:28:37;99667.63;;;16.28;54.12
11114;BME280;5610;52.154;9.198;2024-03-25T14:31:21;99663.91;;;15.76;56.14
11114;BME280;5610;52.154;9.198;2024-03-25T14:34:07;99660.53;;;15.74;57.52
11114;BME280;5610;52.154;9.198;2024-03-25T14:36:51;99661.47;;;15.55;58.19
11114;BME280;5610;52.154;9.198;2024-03-25T14:39:36;99666.50;;;15.40;59.58
11114;BME280;5610;52.154;9.198;2024-03-25T14:42:20;99659.66;;;15.18;60.19
11114;BME280;5610;52.154;9.198;2024-03-25T14:45:05;99658.75;;;15.00;61.24